Time;durP1;ratioP1;P1;durP2;ratioP2;P2;SDS_P1;SDS_P2;PMS_P1;PMS_P2;Temp;Humidity;BMP_temperature;BMP_pressure;BME280_temperature;BME280_humidity;BME280_pressure;Samples;Min_cycle;Max_cycle;Signal;HPM_P1;HPM_P2
2023/05/04 20:09:18;;;;;;;8.20;2.20;;;;;;;18.96;50.89;101200.31;5075113;27;20764;-61
2023/05/04 20:11:43;;;;;;;1.85;1.67;;;;;;;19.66;50.56;101203.94;5048994;28;20033;-62
2023/05/04 20:14:09;;;;;;;2.55;1.90;;;;;;;20.29;49.86;101207.28;5050159;28;20033;-63
2023/05/04 20:16:34;;;;;;;7.78;2.80;;;;;;;20.79;48.09;101203.06;5049465;28;20025;-63
2023/05/04 20:19:00;;;;;;;4.28;1.92;;;;;;;21.12;46.99;101198.09;5049920;28;20041;-63
2023/05/04 20:21:26;;;;;;;7.22;2.05;;;;;;;21.33;47.21;101201.75;5048456;28;20041;-63
2023/05/04 20:23:52;;;;;;;5.25;2.35;;;;;;;21.41;47.19;101193.47;5048706;28;20021;-64
2023/05/04 20:26:17;;;;;;;3.47;2.30;;;;;;;21.52;47.02;101188.56;5048832;28;20052;-63
2023/05/04 20:28:44;;;;;;;3.83;2.45;;;;;;;21.57;47.04;101197.03;5032361;28;20026;-62
2023/05/04 20:31:09;;;;;;;3.55;1.83;;;;;;;21.64;46.28;101195.19;5036944;28;20037;-63
2023/05/04 20:33:35;;;;;;;2.42;2.22;;;;;;;21.70;46.26;101197.16;5045171;28;20041;-63
2023/05/04 20:36:01;;;;;;;4.53;2.03;;;;;;;21.76;45.82;101196.41;5028334;28;20030;-64
2023/05/04 20:38:26;;;;;;;3.53;2.10;;;;;;;21.81;45.84;101199.38;5029965;28;20113;-62
2023/05/04 20:40:52;;;;;;;4.32;2.00;;;;;;;21.83;45.53;101195.44;5028193;28;20026;-64
2023/05/04 20:43:17;;;;;;;4.43;2.65;;;;;;;21.87;45.83;101194.03;5028576;28;20026;-63
2023/05/04 20:45:43;;;;;;;2.50;1.70;;;;;;;21.89;45.82;101188.38;5028177;28;20489;-64
2023/05/04 20:48:08;;;;;;;5.72;3.00;;;;;;;21.87;46.11;101187.75;5011751;28;20041;-63
2023/05/04 20:50:34;;;;;;;3.90;2.35;;;;;;;21.83;45.58;101194.59;5029425;28;20104;-63
2023/05/04 20:53:00;;;;;;;3.63;2.22;;;;;;;21.82;45.76;101191.03;5029332;28;20129;-63
2023/05/04 20:55:26;;;;;;;4.70;2.40;;;;;;;21.80;45.81;101186.81;5028567;28;20478;-63
2023/05/04 20:57:51;;;;;;;6.70;2.20;;;;;;;21.82;46.57;101195.63;5011564;28;20113;-64
2023/05/04 21:00:17;;;;;;;4.55;2.42;;;;;;;21.79;46.17;101185.09;5011302;28;20049;-64
2023/05/04 21:02:42;;;;;;;7.78;2.90;;;;;;;21.76;45.48;101186.34;5028687;28;20030;-63
2023/05/04 21:05:08;;;;;;;4.63;2.90;;;;;;;21.72;46.06;101192.38;5028203;28;20053;-63
2023/05/04 21:07:33;;;;;;;2.38;2.10;;;;;;;21.72;46.07;101184.19;5011747;28;20509;-63
2023/05/04 21:09:58;;;;;;;6.10;2.50;;;;;;;21.71;46.38;101188.81;5011411;28;20531;-63
2023/05/04 21:12:24;;;;;;;4.90;3.20;;;;;;;21.68;46.03;101182.88;5011377;28;20038;-63
2023/05/04 21:14:50;;;;;;;3.90;2.85;;;;;;;21.63;46.82;101179.91;5011513;28;20049;-63
2023/05/04 21:17:15;;;;;;;7.28;2.60;;;;;;;21.65;46.62;101186.00;5011331;28;20390;-63
2023/05/04 21:19:41;;;;;;;6.68;2.40;;;;;;;21.67;46.47;101186.63;4987257;28;20121;-63
2023/05/04 21:22:06;;;;;;;5.53;2.20;;;;;;;21.70;46.30;101191.72;5014419;28;20046;-65
2023/05/04 21:24:32;;;;;;;3.72;2.25;;;;;;;21.75;45.98;101194.69;5014318;28;20060;-63
2023/05/04 21:26:58;;;;;;;7.03;2.72;;;;;;;21.78;46.08;101194.31;5014179;28;20046;-63
2023/05/04 21:29:23;;;;;;;4.55;2.70;;;;;;;21.75;47.34;101189.25;5014071;28;20026;-65
2023/05/04 21:31:49;;;;;;;3.40;2.78;;;;;;;21.71;47.03;101197.00;5015826;28;20087;-62
2023/05/04 21:34:14;;;;;;;2.78;2.35;;;;;;;21.69;46.98;101184.59;5016351;28;20604;-63
2023/05/04 21:36:43;;;;;;;5.28;2.58;;;;;;;21.68;47.50;101182.88;4998668;28;20408;-64
2023/05/04 21:39:08;;;;;;;6.43;2.92;;;;;;;21.68;46.98;101182.88;5014728;28;20030;-63
2023/05/04 21:41:34;;;;;;;4.75;2.47;;;;;;;21.69;47.56;101179.13;4998035;28;20034;-63
2023/05/04 21:43:59;;;;;;;3.70;2.63;;;;;;;21.69;47.52;101184.59;5014177;28;20044;-62
2023/05/04 21:46:24;;;;;;;4.45;2.58;;;;;;;21.69;47.41;101184.59;5014404;28;20371;-62
2023/05/04 21:48:50;;;;;;;3.80;2.40;;;;;;;21.68;46.94;101193.78;4997558;28;20061;-64
2023/05/04 21:51:16;;;;;;;4.80;2.78;;;;;;;21.66;46.59;101184.97;5014057;28;20038;-63
2023/05/04 21:53:42;;;;;;;3.38;2.33;;;;;;;21.63;47.29;101186.19;4981031;28;20025;-65
2023/05/04 21:56:08;;;;;;;8.13;2.80;;;;;;;21.63;47.79;101185.34;5013964;28;20084;-63
2023/05/04 21:58:35;;;;;;;4.55;2.45;;;;;;;21.63;46.88;101179.91;4981672;28;20113;-63
2023/05/04 22:01:02;;;;;;;3.50;2.42;;;;;;;21.67;46.82;101181.19;4997849;28;20093;-63
2023/05/04 22:03:28;;;;;;;5.53;2.97;;;;;;;21.70;47.20;101186.25;5013504;28;20386;-64
2023/05/04 22:05:56;;;;;;;5.15;2.97;;;;;;;21.70;46.47;101188.97;4997108;28;20405;-63
2023/05/04 22:08:24;;;;;;;4.47;2.58;;;;;;;21.71;46.69;101182.50;5013328;28;20504;-63
2023/05/04 22:10:51;;;;;;;7.20;3.08;;;;;;;21.72;47.16;101189.66;4997636;28;20116;-63
2023/05/04 22:13:18;;;;;;;8.05;2.58;;;;;;;21.74;47.13;101187.56;5013535;28;20030;-63
2023/05/04 22:15:44;;;;;;;7.68;2.55;;;;;;;21.76;46.91;101190.94;5013453;28;20052;-63
2023/05/04 22:18:10;;;;;;;2.60;2.10;;;;;;;21.80;46.52;101193.06;5013224;28;20486;-63
2023/05/04 22:20:36;;;;;;;4.07;2.38;;;;;;;21.84;47.48;101191.66;5013147;28;20034;-64
2023/05/04 22:23:02;;;;;;;4.97;2.58;;;;;;;21.90;46.71;101198.28;5029615;28;20473;-63
2023/05/04 22:25:27;;;;;;;6.20;2.78;;;;;;;21.96;46.33;101197.50;5013859;28;20068;-63
2023/05/04 22:27:53;;;;;;;5.10;2.58;;;;;;;22.02;46.78;101196.72;5014367;28;20033;-63
2023/05/04 22:30:20;;;;;;;5.57;2.42;;;;;;;22.07;46.35;101191.53;5012482;28;20042;-63
2023/05/04 22:32:45;;;;;;;7.57;3.13;;;;;;;22.13;46.00;101201.66;5013854;28;20026;-64
2023/05/04 22:35:11;;;;;;;3.88;2.38;;;;;;;22.19;46.23;101197.31;5014435;28;20029;-63
2023/05/04 22:37:36;;;;;;;3.70;3.38;;;;;;;22.22;46.03;101192.28;5015306;28;20089;-63
2023/05/04 22:40:07;;;;;;;7.53;3.40;;;;;;;22.26;46.83;101193.59;5014269;28;20113;-63
2023/05/04 22:42:32;;;;;;;6.03;2.40;;;;;;;22.28;46.41;101191.50;5014515;28;20037;-63
2023/05/04 22:44:57;;;;;;;4.30;2.67;;;;;;;22.30;46.24;101200.34;5012629;28;20537;-63
2023/05/04 22:47:23;;;;;;;3.33;2.50;;;;;;;22.33;46.20;101199.13;5012737;28;20042;-63
2023/05/04 22:49:53;;;;;;;4.53;2.45;;;;;;;22.35;46.09;101206.06;5013681;28;20501;-65
2023/05/04 22:52:18;;;;;;;5.05;2.42;;;;;;;22.35;46.09;101210.69;5034107;28;20049;-63
2023/05/04 22:54:44;;;;;;;5.88;2.70;;;;;;;22.33;46.46;101210.88;5032252;28;20496;-65
2023/05/04 22:57:09;;;;;;;3.75;2.95;;;;;;;22.35;46.93;101218.88;5032376;28;20117;-65
2023/05/04 22:59:35;;;;;;;7.05;2.83;;;;;;;22.33;46.95;101219.06;5032135;28;20025;-64
2023/05/04 23:02:01;;;;;;;3.05;2.60;;;;;;;22.34;47.00;101212.56;5032223;28;20033;-64
2023/05/04 23:04:26;;;;;;;4.47;2.60;;;;;;;22.35;46.75;101213.41;5033995;28;20021;-64
2023/05/04 23:06:53;;;;;;;7.10;2.70;;;;;;;22.35;47.10;101217.00;5015612;28;20469;-64
2023/05/04 23:09:18;;;;;;;4.57;2.70;;;;;;;22.33;46.65;101215.50;5032138;28;20033;-63
2023/05/04 23:11:45;;;;;;;3.85;2.75;;;;;;;22.34;46.89;101214.44;5033599;28;20105;-63
2023/05/04 23:14:10;;;;;;;6.50;2.20;;;;;;;22.35;47.50;101217.00;5034294;28;20025;-63
2023/05/04 23:16:36;;;;;;;5.82;2.90;;;;;;;22.35;46.66;101227.06;5033743;28;20021;-64
2023/05/04 23:19:02;;;;;;;6.72;2.83;;;;;;;22.31;47.04;101221.13;5034051;28;20033;-63
2023/05/04 23:21:27;;;;;;;15.73;4.18;;;;;;;22.30;46.85;101218.63;5032300;28;20381;-63
2023/05/04 23:23:53;;;;;;;4.55;2.53;;;;;;;22.27;47.35;101228.03;5032418;28;20397;-63
2023/05/04 23:26:18;;;;;;;4.72;2.70;;;;;;;22.23;46.63;101221.28;5033214;28;20156;-63
2023/05/04 23:28:45;;;;;;;3.78;2.85;;;;;;;22.18;47.43;101223.75;5033410;28;20053;-63
2023/05/04 23:31:10;;;;;;;5.55;2.88;;;;;;;22.16;47.55;101236.75;5031502;28;20120;-63
2023/05/04 23:33:36;;;;;;;3.78;3.05;;;;;;;22.13;47.27;101242.59;5031923;28;20069;-64
2023/05/04 23:36:01;;;;;;;5.63;2.97;;;;;;;22.11;46.93;101243.84;5031994;28;20033;-63
2023/05/04 23:38:27;;;;;;;4.97;2.92;;;;;;;22.05;47.43;101240.81;5031370;28;20044;-64
2023/05/04 23:40:53;;;;;;;3.88;3.08;;;;;;;21.99;47.95;101244.34;5032723;28;20493;-64
2023/05/04 23:43:18;;;;;;;3.88;2.75;;;;;;;21.96;47.78;101246.59;5033041;28;20485;-64
2023/05/04 23:45:44;;;;;;;4.03;2.85;;;;;;;21.91;47.13;101247.19;5031719;28;20083;-63
2023/05/04 23:48:10;;;;;;;5.28;3.60;;;;;;;21.86;47.18;101257.78;5032840;28;20026;-64
2023/05/04 23:50:35;;;;;;;4.57;3.42;;;;;;;21.83;48.04;101257.34;5032905;28;20087;-63
2023/05/04 23:53:01;;;;;;;6.68;3.30;;;;;;;21.80;48.18;101255.00;5031353;28;20025;-64
2023/05/04 23:55:27;;;;;;;6.47;3.40;;;;;;;21.73;48.39;101237.69;5015249;28;20026;-63
2023/05/04 23:57:52;;;;;;;4.40;3.63;;;;;;;21.71;47.72;101243.34;5031532;28;20378;-64
